createdAt,value
2022-11-21T00:03:27.707Z,99828.03
2022-11-21T00:07:29.477Z,99833.16
2022-11-21T00:11:31.434Z,99833.25
2022-11-21T00:15:35.650Z,99829.78
2022-11-21T00:19:37.481Z,99826.34
2022-11-21T00:23:39.422Z,99821.25
2022-11-21T00:27:41.656Z,99825.59
2022-11-21T00:31:43.320Z,99833.22
2022-11-21T00:35:45.437Z,99833.16
2022-11-21T00:39:47.104Z,99828.81
2022-11-21T00:43:49.050Z,99829.59
2022-11-21T00:47:50.915Z,99827.81
2022-11-21T00:51:53.662Z,99817.50
2022-11-21T00:55:55.590Z,99804.63
2022-11-21T00:59:57.632Z,99808.84
2022-11-21T01:03:59.415Z,99801.13
2022-11-21T01:08:01.224Z,99796.00
2022-11-21T01:12:03.003Z,99790.19
2022-11-21T01:16:07.187Z,99803.19
2022-11-21T01:20:09.527Z,99792.25
2022-11-21T01:24:12.392Z,99796.59
2022-11-21T01:28:14.361Z,99793.38
2022-11-21T01:32:16.199Z,99784.09
2022-11-21T01:36:25.211Z,99788.41
2022-11-21T01:40:27.150Z,99783.38
2022-11-21T01:44:51.802Z,99765.44
2022-11-21T01:49:26.720Z,99767.97
2022-11-21T01:53:28.411Z,99768.88
2022-11-21T01:57:35.977Z,99768.03
2022-11-21T02:01:38.296Z,99769.78
2022-11-21T02:05:41.269Z,99763.97
2022-11-21T02:09:46.882Z,99765.69
2022-11-21T02:13:48.842Z,99768.28
2022-11-21T02:17:50.473Z,99763.28
2022-11-21T02:22:02.365Z,99767.69
2022-11-21T02:26:04.327Z,99769.56
2022-11-21T02:30:09.914Z,99775.66
2022-11-21T02:34:11.600Z,99780.09
2022-11-21T02:38:22.572Z,99790.38
2022-11-21T02:42:36.473Z,99810.09
2022-11-21T02:46:47.567Z,99795.63
2022-11-21T02:50:49.255Z,99804.28
2022-11-21T02:54:51.205Z,99805.16
2022-11-21T02:58:52.985Z,99810.25
2022-11-21T03:02:56.033Z,99826.50
2022-11-21T03:06:57.726Z,99830.88
2022-11-21T03:10:59.603Z,99832.56
2022-11-21T03:15:01.344Z,99837.75
2022-11-21T03:19:03.738Z,99850.53
2022-11-21T03:23:05.436Z,99855.66
2022-11-21T03:27:07.670Z,99854.81
2022-11-21T03:31:09.424Z,99855.66
2022-11-21T03:35:11.330Z,99852.28
2022-11-21T03:39:13.191Z,99848.84
2022-11-21T03:43:15.087Z,99864.19
2022-11-21T03:47:17.058Z,99860.78
2022-11-21T03:51:19.501Z,99869.31
2022-11-21T03:55:21.815Z,99863.34
2022-11-21T03:59:23.738Z,99853.13
2022-11-21T04:03:25.558Z,99853.13
2022-11-21T04:07:27.513Z,99853.13
2022-11-21T04:11:29.291Z,99859.09
2022-11-21T04:15:31.486Z,99869.31
2022-11-21T04:19:33.362Z,99864.19
2022-11-21T04:23:35.282Z,99864.19
2022-11-21T04:27:37.142Z,99869.31
2022-11-21T04:31:39.122Z,99871.00
2022-11-21T04:35:42.656Z,99865.91
2022-11-21T04:39:44.611Z,99870.16
2022-11-21T04:43:46.253Z,99857.41
2022-11-21T04:47:49.779Z,99854.84
2022-11-21T04:51:51.631Z,99847.19
2022-11-21T04:55:53.577Z,99836.94
2022-11-21T04:59:55.630Z,99830.13
2022-11-21T05:03:58.027Z,99825.88
2022-11-21T05:07:59.811Z,99833.56
2022-11-21T05:12:20.526Z,99844.59
2022-11-21T05:16:22.297Z,99842.88
2022-11-21T05:20:24.236Z,99836.94
2022-11-21T05:24:26.377Z,99836.94
2022-11-21T05:28:28.680Z,99836.09
2022-11-21T05:32:30.328Z,99833.56
2022-11-21T05:36:32.291Z,99830.13
2022-11-21T05:40:34.150Z,99836.94
2022-11-21T05:44:36.060Z,99837.78
2022-11-21T05:48:37.984Z,99842.03
2022-11-21T05:52:40.050Z,99843.78
2022-11-21T05:56:42.388Z,99836.94
2022-11-21T06:00:44.428Z,99827.59
2022-11-21T06:04:46.145Z,99818.19
2022-11-21T06:08:48.098Z,99813.97
2022-11-21T06:12:49.703Z,99811.38
2022-11-21T06:16:51.786Z,99806.25
2022-11-21T06:20:54.269Z,99799.41
2022-11-21T06:24:56.201Z,99801.13
2022-11-21T06:28:58.043Z,99790.00
2022-11-21T06:33:00.007Z,99801.91
2022-11-21T06:37:01.739Z,99783.06
2022-11-21T06:41:25.065Z,99783.03
2022-11-21T06:45:26.906Z,99780.38
2022-11-21T06:49:28.850Z,99792.28
2022-11-21T06:53:30.521Z,99793.06
2022-11-21T06:57:32.854Z,99808.41
2022-11-21T07:01:34.602Z,99810.06
2022-11-21T07:05:36.637Z,99810.03
2022-11-21T07:09:38.334Z,99815.06
2022-11-21T07:13:40.376Z,99812.53
2022-11-21T07:17:42.296Z,99812.50
2022-11-21T07:21:44.284Z,99800.44
2022-11-21T07:25:45.967Z,99809.81
2022-11-21T07:29:47.915Z,99799.53
2022-11-21T07:33:49.743Z,99784.03
2022-11-21T07:37:52.302Z,99774.50
2022-11-21T07:41:54.004Z,99777.81
2022-11-21T07:45:56.736Z,99774.34
2022-11-21T07:49:58.383Z,99770.78
2022-11-21T07:54:00.503Z,99764.63
2022-11-21T07:58:04.453Z,99765.34
2022-11-21T08:02:06.705Z,99765.91
2022-11-21T08:06:12.202Z,99765.75
2022-11-21T08:10:15.335Z,99755.28
2022-11-21T08:14:16.957Z,99757.56
2022-11-21T08:18:19.252Z,99765.88
2022-11-21T08:22:20.918Z,99776.13
2022-11-21T08:26:22.905Z,99769.09
2022-11-21T08:30:24.706Z,99769.69
2022-11-21T08:34:26.760Z,99772.06
2022-11-21T08:38:28.426Z,99787.28
2022-11-21T08:42:30.424Z,99782.00
2022-11-21T08:46:35.695Z,99786.94
2022-11-21T08:50:37.722Z,99787.66
2022-11-21T08:54:39.544Z,99788.06
2022-11-21T08:58:41.533Z,99792.16
2022-11-21T09:02:43.259Z,99780.91
2022-11-21T09:06:45.350Z,99785.84
2022-11-21T09:10:47.022Z,99784.72
2022-11-21T09:15:07.610Z,99776.47
2022-11-21T09:19:09.399Z,99779.63
2022-11-21T09:23:13.665Z,99788.16
2022-11-21T09:27:15.376Z,99799.88
2022-11-21T09:31:17.337Z,99803.22
2022-11-21T09:35:18.937Z,99806.22
2022-11-21T09:39:21.717Z,99810.34
2022-11-21T09:43:38.402Z,99819.84
2022-11-21T09:47:47.684Z,99827.84
2022-11-21T09:51:50.613Z,99827.25
2022-11-21T09:56:04.401Z,99809.66
2022-11-21T10:00:16.432Z,99793.44
2022-11-21T10:04:18.642Z,99790.19
2022-11-21T10:08:49.329Z,99785.25
2022-11-21T10:13:25.630Z,99774.78
2022-11-21T10:17:46.286Z,99762.63
2022-11-21T10:22:15.879Z,99760.84
2022-11-21T10:26:45.226Z,99766.03
2022-11-21T10:30:51.575Z,99769.59
2022-11-21T10:34:59.454Z,99767.63
2022-11-21T10:39:14.879Z,99779.97
2022-11-21T10:43:41.487Z,99778.00
2022-11-21T10:47:44.184Z,99768.50
2022-11-21T10:51:56.288Z,99783.91
2022-11-21T10:56:21.240Z,99777.72
2022-11-21T11:00:27.482Z,99788.06
2022-11-21T11:04:36.844Z,99790.81
2022-11-21T11:08:52.177Z,99792.97
2022-11-21T11:13:38.855Z,99781.09
2022-11-21T11:17:34.737Z,99786.59
2022-11-21T11:21:40.816Z,99783.66
2022-11-21T11:26:03.260Z,99786.44
2022-11-21T11:30:08.685Z,99780.66
2022-11-21T11:34:14.035Z,99785.91
2022-11-21T11:38:17.424Z,99793.25
2022-11-21T11:43:03.170Z,99787.66
2022-11-21T11:47:31.044Z,99783.41
2022-11-21T11:51:47.840Z,99782.53
2022-11-21T11:55:53.272Z,99779.06
2022-11-21T12:00:24.061Z,99763.31
2022-11-21T12:04:30.241Z,99767.66
2022-11-21T12:08:48.946Z,99771.25
2022-11-21T12:13:06.419Z,99766.59
2022-11-21T12:17:10.380Z,99748.94
2022-11-21T12:21:15.219Z,99755.19
2022-11-21T12:25:23.580Z,99751.41
2022-11-21T12:29:41.997Z,99750.13
2022-11-21T12:34:12.146Z,99739.75
2022-11-21T12:38:27.618Z,99747.34
2022-11-21T12:42:50.251Z,99735.69
2022-11-21T12:47:12.005Z,99743.06
2022-11-21T12:51:45.989Z,99732.81
2022-11-21T12:56:02.073Z,99741.59
2022-11-21T13:00:18.842Z,99728.31
2022-11-21T13:04:26.757Z,99727.91
2022-11-21T13:08:32.060Z,99711.06
2022-11-21T13:12:53.818Z,99711.91
2022-11-21T13:17:29.292Z,99715.09
2022-11-21T13:21:46.241Z,99698.53
2022-11-21T13:25:48.052Z,99687.56
2022-11-21T13:30:11.469Z,99681.28
2022-11-21T13:34:40.805Z,99698.41
2022-11-21T13:39:17.826Z,99695.25
2022-11-21T13:43:33.107Z,99693.88
2022-11-21T13:47:56.897Z,99700.97
2022-11-21T13:52:06.676Z,99686.59
2022-11-21T13:56:37.063Z,99682.16
2022-11-21T14:01:08.094Z,99673.41
2022-11-21T14:05:34.890Z,99673.97
2022-11-21T14:09:38.490Z,99676.09
2022-11-21T14:13:47.636Z,99664.66
2022-11-21T14:17:59.928Z,99670.88
2022-11-21T14:22:01.881Z,99669.72
2022-11-21T14:26:11.509Z,99670.66
2022-11-21T14:30:55.499Z,99662.22
2022-11-21T14:35:18.532Z,99660.34
2022-11-21T14:39:43.709Z,99675.13
2022-11-21T14:43:47.094Z,99670.06
2022-11-21T14:47:50.746Z,99666.06
2022-11-21T14:52:19.480Z,99653.91
2022-11-21T14:56:27.243Z,99653.66
2022-11-21T15:00:58.125Z,99650.94
2022-11-21T15:04:56.733Z,99651.88
2022-11-21T15:13:24.590Z,99647.81
2022-11-21T15:17:27.422Z,99644.34
2022-11-21T15:21:29.681Z,99635.00
2022-11-21T15:25:45.304Z,99638.72
2022-11-21T15:29:47.362Z,99648.00
2022-11-21T15:34:19.623Z,99635.13
2022-11-21T15:38:43.179Z,99621.63
2022-11-21T15:42:45.457Z,99624.19
2022-11-21T15:46:51.718Z,99621.63
2022-11-21T15:50:57.573Z,99627.66
2022-11-21T15:55:00.804Z,99611.28
2022-11-21T15:59:03.144Z,99603.72
2022-11-21T16:03:04.822Z,99617.38
2022-11-21T16:07:06.988Z,99611.81
2022-11-21T16:11:24.906Z,99606.44
2022-11-21T16:15:26.819Z,99610.72
2022-11-21T16:19:28.882Z,99608.09
2022-11-21T16:23:30.871Z,99601.28
2022-11-21T16:27:32.757Z,99601.09
2022-11-21T16:31:34.824Z,99602.22
2022-11-21T16:35:40.829Z,99603.53
2022-11-21T16:39:42.706Z,99607.72
2022-11-21T16:43:50.029Z,99601.13
2022-11-21T16:47:51.965Z,99596.56
2022-11-21T16:51:54.167Z,99593.97
2022-11-21T16:56:04.923Z,99593.00
2022-11-21T17:00:07.666Z,99604.84
2022-11-21T17:04:15.615Z,99591.16
2022-11-21T17:08:19.315Z,99580.78
2022-11-21T17:12:20.949Z,99588.44
2022-11-21T17:16:23.565Z,99584.13
2022-11-21T17:20:25.359Z,99574.72
2022-11-21T17:24:27.668Z,99581.16
2022-11-21T17:28:30.190Z,99574.31
2022-11-21T17:32:32.226Z,99568.16
2022-11-21T17:36:34.567Z,99571.78
2022-11-21T17:40:37.359Z,99572.47
2022-11-21T17:44:39.337Z,99571.59
2022-11-21T17:48:41.126Z,99583.06
2022-11-21T17:52:43.165Z,99580.75
2022-11-21T17:56:47.383Z,99591.81
2022-11-21T18:00:55.501Z,99587.44
2022-11-21T18:04:57.312Z,99586.59
2022-11-21T18:08:59.295Z,99580.63
2022-11-21T18:13:01.090Z,99571.03
2022-11-21T18:17:03.094Z,99560.88
2022-11-21T18:21:07.099Z,99561.63
2022-11-21T18:25:09.224Z,99567.50
2022-11-21T18:29:35.146Z,99564.69
2022-11-21T18:33:33.620Z,99560.41
2022-11-21T18:37:35.481Z,99562.22
2022-11-21T18:41:40.425Z,99567.09
2022-11-21T18:45:42.319Z,99575.69
2022-11-21T18:49:44.249Z,99569.69
2022-11-21T18:53:54.225Z,99570.19
2022-11-21T18:57:56.345Z,99570.25
2022-11-21T19:01:58.129Z,99570.25
2022-11-21T19:06:00.745Z,99571.75
2022-11-21T19:10:27.790Z,99578.88
2022-11-21T19:14:24.333Z,99582.16
2022-11-21T19:18:26.016Z,99571.03
2022-11-21T19:22:29.072Z,99585.66
2022-11-21T19:26:31.283Z,99576.19
2022-11-21T19:30:33.305Z,99578.56
2022-11-21T19:34:35.040Z,99570.97
2022-11-21T19:38:37.151Z,99575.94
2022-11-21T19:42:39.390Z,99584.63
2022-11-21T19:46:41.576Z,99570.59
2022-11-21T19:50:49.276Z,99574.19
2022-11-21T19:54:52.938Z,99569.28
2022-11-21T19:58:56.988Z,99573.81
2022-11-21T20:02:58.666Z,99581.44
2022-11-21T20:07:04.923Z,99578.19
2022-11-21T20:11:15.394Z,99583.53
2022-11-21T20:15:17.353Z,99586.84
2022-11-21T20:19:20.822Z,99593.63
2022-11-21T20:23:23.003Z,99591.13
2022-11-21T20:27:24.989Z,99591.84
2022-11-21T20:31:29.438Z,99600.53
2022-11-21T20:35:31.453Z,99596.34
2022-11-21T20:39:33.538Z,99600.50
2022-11-21T20:44:03.125Z,99603.41
2022-11-21T20:47:57.197Z,99594.59
2022-11-21T20:56:21.199Z,99606.59
2022-11-21T21:00:23.105Z,99593.94
2022-11-21T21:04:25.030Z,99587.13
2022-11-21T21:08:27.848Z,99586.50
2022-11-21T21:12:31.393Z,99597.47
2022-11-21T21:16:36.174Z,99592.22
2022-11-21T21:21:01.701Z,99594.19
2022-11-21T21:24:59.949Z,99604.84
2022-11-21T21:29:02.620Z,99605.47
2022-11-21T21:33:04.241Z,99603.00
2022-11-21T21:37:06.238Z,99596.69
2022-11-21T21:41:10.650Z,99596.09
2022-11-21T21:45:12.520Z,99608.03
2022-11-21T21:49:14.249Z,99609.19
2022-11-21T21:53:16.191Z,99599.78
2022-11-21T21:57:17.818Z,99608.72
2022-11-21T22:01:23.214Z,99614.22
2022-11-21T22:05:24.852Z,99614.31
2022-11-21T22:09:26.858Z,99607.53
2022-11-21T22:13:29.576Z,99608.19
2022-11-21T22:17:31.462Z,99613.50
2022-11-21T22:21:35.499Z,99610.75
2022-11-21T22:25:37.177Z,99609.63
2022-11-21T22:29:39.070Z,99597.78
2022-11-21T22:33:42.630Z,99588.50
2022-11-21T22:37:44.450Z,99594.47
2022-11-21T22:41:46.435Z,99610.81
2022-11-21T22:45:48.289Z,99613.28
2022-11-21T22:49:50.250Z,99613.44
2022-11-21T22:53:53.230Z,99607.44
2022-11-21T22:57:55.113Z,99607.97
2022-11-21T23:01:56.917Z,99600.47
2022-11-21T23:06:02.887Z,99607.44
2022-11-21T23:10:04.927Z,99602.31
2022-11-21T23:14:08.017Z,99609.25
2022-11-21T23:18:09.776Z,99606.97
2022-11-21T23:22:12.084Z,99612.94
2022-11-21T23:26:14.203Z,99609.09
2022-11-21T23:30:17.211Z,99612.47
2022-11-21T23:34:19.006Z,99611.88
2022-11-21T23:38:22.033Z,99607.41
2022-11-21T23:42:23.880Z,99604.03
2022-11-21T23:46:27.311Z,99606.50
2022-11-21T23:50:29.207Z,99599.41
2022-11-21T23:54:31.390Z,99601.13
2022-11-21T23:58:33.188Z,99596.94
